^^
Saratoga-Weather Station Historical Data
Daily Summary for May 20, 2022 Units:  Metric    English   Both
Daily Weekly Monthly Yearly Custom
  High: Low: Average:
Temperature: 27.9 °C 13.8 °C 20.8 °C
Dew Point: 21.1 °C 11.3 °C 16.7 °C
Humidity: 90% 55% 78%
Wind Speed: 25.9km/h 0km/h 3.9km/h
Wind Gust: 29km/h - -
Wind- - SSW
Pressure: 1021.0 hPa 1012.5 hPa -
Precipitation: 5.3 mm    
Historical Graphs
 
 
Tabular Data for May 20, 2022
Time Temperature Dew Point Pressure Wind Wind Speed Wind Gust Humidity Rainfall Rate (Hourly) solar
00:01 19.6 °C 16.6 °C 1019.3 hPa Calm     83% 0.0 mm 0 W/m2
00:06 19.6 °C 16.6 °C 1019.3 hPa Calm     83% 0.0 mm 0 W/m2
00:11 19.6 °C 16.6 °C 1019.3 hPa Calm     83% 0.0 mm 0 W/m2
00:16 19.5 °C 16.5 °C 1019.3 hPa Calm     83% 0.0 mm 0 W/m2
00:21 19.5 °C 16.5 °C 1019.3 hPa Calm     83% 0.0 mm 0 W/m2
00:26 19.4 °C 16.4 °C 1019.3 hPa Calm     83% 0.0 mm 0 W/m2
00:31 19.4 °C 16.6 °C 1019.3 hPa Calm     84% 0.0 mm 0 W/m2
00:36 19.4 °C 16.6 °C 1019.3 hPa Calm     84% 0.0 mm 0 W/m2
00:41 19.4 °C 16.6 °C 1019.3 hPa Calm     84% 0.0 mm 0 W/m2
00:46 19.3 °C 16.5 °C 1019.3 hPa Calm     84% 0.0 mm 0 W/m2
00:51 19.3 °C 16.5 °C 1019.3 hPa Calm     84% 0.0 mm 0 W/m2
00:56 19.3 °C 16.5 °C 1019.3 hPa Calm     84% 0.0 mm 0 W/m2
01:01 19.3 °C 16.5 °C 1019.0 hPa Calm     84% 0.0 mm 0 W/m2
01:06 19.3 °C 16.5 °C 1019.0 hPa Calm     84% 0.0 mm 0 W/m2
01:11 19.3 °C 16.5 °C 1019.0 hPa Calm     84% 0.0 mm 0 W/m2
01:16 19.3 °C 16.5 °C 1019.0 hPa Calm     84% 0.0 mm 0 W/m2
01:21 19.3 °C 16.5 °C 1019.0 hPa Calm     84% 0.0 mm 0 W/m2
01:26 19.3 °C 16.5 °C 1019.3 hPa Calm     84% 0.0 mm 0 W/m2
01:31 19.3 °C 16.5 °C 1019.0 hPa Calm     84% 0.0 mm 0 W/m2
01:36 19.3 °C 16.5 °C 1019.0 hPa Calm     84% 0.0 mm 0 W/m2
01:41 19.3 °C 16.5 °C 1019.0 hPa Calm     84% 0.0 mm 0 W/m2
01:46 19.3 °C 16.5 °C 1019.0 hPa SSE 1.4 km/h 1.6 km/h 84% 0.0 mm 0 W/m2
01:51 19.3 °C 16.5 °C 1019.0 hPa SSE 3.2 km/h 3.2 km/h 84% 0.0 mm 0 W/m2
01:56 19.3 °C 16.5 °C 1019.3 hPa Calm   3.2 km/h 84% 0.0 mm 0 W/m2
02:01 19.3 °C 16.5 °C 1019.0 hPa WSW 1.4 km/h 3.2 km/h 84% 0.0 mm 0 W/m2
02:06 19.3 °C 16.5 °C 1019.0 hPa Calm     84% 0.0 mm 0 W/m2
02:11 19.3 °C 16.5 °C 1019.0 hPa Calm   1.6 km/h 84% 0.0 mm 0 W/m2
02:16 19.3 °C 16.5 °C 1019.0 hPa WSW 1.4 km/h 3.2 km/h 84% 0.0 mm 0 W/m2
02:21 19.3 °C 16.5 °C 1019.0 hPa Calm   1.6 km/h 84% 0.0 mm 0 W/m2
02:26 19.2 °C 16.4 °C 1019.0 hPa Calm   1.6 km/h 84% 0.0 mm 0 W/m2
02:31 19.2 °C 16.4 °C 1019.0 hPa Calm     84% 0.0 mm 0 W/m2
02:36 19.2 °C 16.4 °C 1018.6 hPa East 1.4 km/h 4.8 km/h 84% 0.0 mm 0 W/m2
02:41 19.2 °C 16.4 °C 1018.6 hPa East 1.4 km/h 3.2 km/h 84% 0.0 mm 0 W/m2
02:46 19.2 °C 16.4 °C 1018.6 hPa Calm   4.8 km/h 84% 0.0 mm 0 W/m2
02:51 19.1 °C 16.3 °C 1018.6 hPa Calm   1.6 km/h 84% 0.0 mm 0 W/m2
02:56 19 °C 16.2 °C 1018.6 hPa Calm     84% 0.0 mm 0 W/m2
03:01 18.8 °C 16 °C 1018.6 hPa Calm   1.6 km/h 84% 0.0 mm 0 W/m2
03:06 18.7 °C 16.1 °C 1018.3 hPa Calm     85% 0.0 mm 0 W/m2
03:11 18.6 °C 16 °C 1018.3 hPa Calm     85% 0.0 mm 0 W/m2
03:16 18.4 °C 15.8 °C 1018.3 hPa Calm     85% 0.0 mm 0 W/m2
03:21 18.3 °C 15.9 °C 1018.3 hPa Calm     86% 0.0 mm 0 W/m2
03:26 18.2 °C 15.8 °C 1018.3 hPa Calm     86% 0.0 mm 0 W/m2
03:31 18.2 °C 16 °C 1018.3 hPa Calm     87% 0.0 mm 0 W/m2
03:36 18.2 °C 16 °C 1018.3 hPa ESE 1.4 km/h 3.2 km/h 87% 0.0 mm 0 W/m2
03:41 18.2 °C 16 °C 1018.3 hPa Calm   1.6 km/h 87% 0.0 mm 0 W/m2
03:46 18.2 °C 16 °C 1018.3 hPa WSW 1.4 km/h 3.2 km/h 87% 0.0 mm 0 W/m2
03:51 18.2 °C 16 °C 1018.3 hPa Calm     87% 0.0 mm 0 W/m2
03:56 18.2 °C 16 °C 1018.3 hPa Calm   3.2 km/h 87% 0.0 mm 0 W/m2
04:01 18.2 °C 16 °C 1018.3 hPa Calm   1.6 km/h 87% 0.0 mm 0 W/m2
04:06 18.1 °C 15.9 °C 1018.3 hPa Calm     87% 0.0 mm 0 W/m2
04:11 18.1 °C 15.9 °C 1018.3 hPa SW 3.2 km/h 3.2 km/h 87% 0.0 mm 0 W/m2
04:16 18.1 °C 15.9 °C 1018.3 hPa ENE 3.2 km/h 3.2 km/h 87% 0.0 mm 0 W/m2
04:21 18 °C 15.8 °C 1018.3 hPa Calm   3.2 km/h 87% 0.0 mm 0 W/m2
04:26 18 °C 16 °C 1018.3 hPa Calm   1.6 km/h 88% 0.0 mm 0 W/m2
04:31 18 °C 15.8 °C 1018.3 hPa Calm   3.2 km/h 87% 0.0 mm 0 W/m2
04:36 17.9 °C 15.9 °C 1018.3 hPa ENE 1.4 km/h 1.6 km/h 88% 0.0 mm 0 W/m2
04:41 17.9 °C 15.7 °C 1018.3 hPa Calm   1.6 km/h 87% 0.0 mm 0 W/m2
04:46 17.9 °C 15.7 °C 1018.3 hPa ESE 1.4 km/h 6.4 km/h 87% 0.0 mm 0 W/m2
04:51 17.9 °C 15.7 °C 1018.0 hPa Calm     87% 0.0 mm 0 W/m2
04:56 17.9 °C 15.7 °C 1018.0 hPa Calm   1.6 km/h 87% 0.0 mm 0 W/m2
05:01 17.8 °C 15.6 °C 1018.0 hPa Calm     87% 0.0 mm 0 W/m2
05:06 17.7 °C 15.5 °C 1018.0 hPa Calm     87% 0.0 mm 0 W/m2
05:12 17.7 °C 15.5 °C 1018.0 hPa ESE 1.4 km/h 1.6 km/h 87% 0.0 mm 0 W/m2
05:17 17.5 °C 15.5 °C 1018.0 hPa Calm   1.6 km/h 88% 0.0 mm 0 W/m2
05:22 17.4 °C 15.4 °C 1018.0 hPa Calm     88% 0.0 mm 0 W/m2
05:27 17.3 °C 15.3 °C 1018.0 hPa Calm     88% 0.0 mm 0 W/m2
05:32 17.2 °C 15.2 °C 1018.0 hPa Calm     88% 0.0 mm 0 W/m2
05:37 17.2 °C 15.2 °C 1018.0 hPa Calm     88% 0.0 mm 0 W/m2
05:42 17.1 °C 15.1 °C 1018.0 hPa Calm     88% 0.0 mm 0 W/m2
05:47 16.9 °C 15.1 °C 1018.0 hPa Calm   1.6 km/h 89% 0.0 mm 0 W/m2
05:52 16.9 °C 15.1 °C 1017.6 hPa NE 1.4 km/h 3.2 km/h 89% 0.0 mm 0 W/m2
05:57 16.9 °C 15.1 °C 1017.6 hPa SSE 1.4 km/h 3.2 km/h 89% 0.0 mm 0 W/m2
06:02 16.9 °C 15.1 °C 1018.0 hPa Calm     89% 0.0 mm 7 W/m2
06:07 16.9 °C 15.1 °C 1018.0 hPa Calm   3.2 km/h 89% 0.0 mm 9 W/m2
06:12 16.9 °C 15.1 °C 1017.6 hPa Calm     89% 0.0 mm 12 W/m2
06:17 16.9 °C 15.1 °C 1017.6 hPa Calm     89% 0.0 mm 16 W/m2
06:22 16.8 °C 15 °C 1017.6 hPa Calm     89% 0.0 mm 18 W/m2
06:27 16.8 °C 15.1 °C 1017.6 hPa Calm     90% 0.0 mm 19 W/m2
06:32 16.9 °C 15.2 °C 1018.0 hPa Calm     90% 0.0 mm 23 W/m2
06:37 16.9 °C 15.2 °C 1018.0 hPa Calm     90% 0.0 mm 25 W/m2
06:42 16.9 °C 15.2 °C 1018.0 hPa Calm     90% 0.0 mm 28 W/m2
06:47 16.9 °C 15.2 °C 1018.0 hPa Calm     90% 0.0 mm 33 W/m2
06:52 16.9 °C 15.2 °C 1018.0 hPa Calm     90% 0.0 mm 39 W/m2
06:57 17 °C 15.3 °C 1017.6 hPa SSE 1.4 km/h 3.2 km/h 90% 0.0 mm 46 W/m2
07:02 17.1 °C 15.4 °C 1017.6 hPa Calm     90% 0.0 mm 49 W/m2
07:07 17.1 °C 15.4 °C 1017.6 hPa Calm   3.2 km/h 90% 0.0 mm 51 W/m2
07:12 17.2 °C 15.5 °C 1018.0 hPa SE 1.4 km/h 1.6 km/h 90% 0.0 mm 81 W/m2
07:17 17.4 °C 15.7 °C 1018.0 hPa Calm   1.6 km/h 90% 0.0 mm 76 W/m2
07:22 17.6 °C 15.8 °C 1018.0 hPa Calm   3.2 km/h 89% 0.0 mm 83 W/m2
07:27 17.9 °C 16.1 °C 1018.0 hPa Calm     89% 0.0 mm 111 W/m2
07:32 18.2 °C 16.2 °C 1018.0 hPa Calm   1.6 km/h 88% 0.0 mm 134 W/m2
07:37 18.4 °C 16 °C 1018.0 hPa North 1.4 km/h 3.2 km/h 86% 0.0 mm 144 W/m2
07:42 18.7 °C 16.3 °C 1018.0 hPa NE 1.4 km/h 3.2 km/h 86% 0.0 mm 146 W/m2
07:47 18.9 °C 16.3 °C 1018.0 hPa Calm   1.6 km/h 85% 0.0 mm 165 W/m2
07:52 19.2 °C 16.4 °C 1018.0 hPa Calm     84% 0.0 mm 181 W/m2
07:57 19.4 °C 16.6 °C 1018.0 hPa Calm   4.8 km/h 84% 0.0 mm 169 W/m2
08:02 19.7 °C 16.7 °C 1018.0 hPa Calm   3.2 km/h 83% 0.0 mm 193 W/m2
08:07 19.8 °C 16.8 °C 1018.0 hPa East 1.4 km/h 3.2 km/h 83% 0.0 mm 207 W/m2
08:12 19.9 °C 16.7 °C 1018.0 hPa East 4.7 km/h 6.4 km/h 82% 0.0 mm 102 W/m2
08:17 19.9 °C 16.7 °C 1018.0 hPa ESE 1.4 km/h 4.8 km/h 82% 0.0 mm 88 W/m2
08:22 19.9 °C 16.7 °C 1018.0 hPa ENE 3.2 km/h 6.4 km/h 82% 0.0 mm 86 W/m2
08:27 20.1 °C 16.9 °C 1017.6 hPa East 3.2 km/h 6.4 km/h 82% 0.0 mm 83 W/m2
08:32 20.2 °C 17 °C 1017.6 hPa Calm     82% 0.0 mm 81 W/m2
08:37 20.4 °C 17 °C 1018.0 hPa Calm   4.8 km/h 81% 0.0 mm 86 W/m2
08:42 20.4 °C 17 °C 1018.0 hPa Calm   3.2 km/h 81% 0.0 mm 90 W/m2
08:47 20.5 °C 16.9 °C 1018.0 hPa NE 1.4 km/h 3.2 km/h 80% 0.0 mm 91 W/m2
08:52 20.6 °C 17 °C 1018.0 hPa North 1.4 km/h 3.2 km/h 80% 0.0 mm 95 W/m2
08:57 20.6 °C 17.2 °C 1018.0 hPa NW 1.4 km/h 3.2 km/h 81% 0.0 mm 95 W/m2
09:02 20.7 °C 17.1 °C 1018.0 hPa NW 1.4 km/h 3.2 km/h 80% 0.0 mm 100 W/m2
09:07 21 °C 17.2 °C 1018.0 hPa Calm   6.4 km/h 79% 0.0 mm 102 W/m2
09:12 21.1 °C 17.3 °C 1017.6 hPa ENE 4.7 km/h 8 km/h 79% 0.0 mm 102 W/m2
09:17 21.2 °C 17.4 °C 1018.0 hPa ESE 1.4 km/h 6.4 km/h 79% 0.0 mm 113 W/m2
09:22 21.4 °C 17.6 °C 1018.0 hPa East 4.7 km/h 8 km/h 79% 0.0 mm 130 W/m2
09:27 21.6 °C 17.6 °C 1017.6 hPa NNE 1.4 km/h 8 km/h 78% 0.0 mm 141 W/m2
09:32 21.9 °C 17.7 °C 1017.6 hPa ENE 4.7 km/h 6.4 km/h 77% 0.0 mm 144 W/m2
09:37 21.9 °C 17.7 °C 1018.0 hPa NE 3.2 km/h 6.4 km/h 77% 0.0 mm 127 W/m2
09:42 22 °C 17.8 °C 1018.0 hPa East 7.9 km/h 9.7 km/h 77% 0.0 mm 114 W/m2
09:47 22.2 °C 18 °C 1018.0 hPa ENE 1.4 km/h 4.8 km/h 77% 0.0 mm 105 W/m2
09:52 22.4 °C 18 °C 1017.6 hPa Calm   4.8 km/h 76% 0.0 mm 132 W/m2
09:57 22.7 °C 18.2 °C 1018.0 hPa ENE 4.7 km/h 6.4 km/h 76% 0.0 mm 95 W/m2
10:02 23 °C 18.1 °C 1017.6 hPa North 3.2 km/h 4.8 km/h 74% 0.0 mm 497 W/m2
10:07 23.4 °C 18.3 °C 1017.6 hPa East 1.4 km/h 4.8 km/h 73% 0.0 mm 538 W/m2
10:12 23.7 °C 17.9 °C 1017.6 hPa NW 3.2 km/h 8 km/h 70% 0.0 mm 545 W/m2
10:17 23.8 °C 17.3 °C 1017.6 hPa WNW 3.2 km/h 4.8 km/h 67% 0.0 mm 554 W/m2
10:22 24 °C 17 °C 1017.6 hPa NW 3.2 km/h 8 km/h 65% 0.0 mm 563 W/m2
10:27 24.2 °C 17.2 °C 1017.3 hPa NW 7.9 km/h 8 km/h 65% 0.0 mm 605 W/m2
10:32 24.4 °C 17.4 °C 1017.3 hPa ENE 3.2 km/h 4.8 km/h 65% 0.0 mm 619 W/m2
10:37 24.7 °C 17.4 °C 1016.9 hPa WSW 9.7 km/h 11.3 km/h 64% 0.0 mm 640 W/m2
10:42 24.9 °C 17.4 °C 1017.3 hPa NW 3.2 km/h 11.3 km/h 63% 0.0 mm 707 W/m2
10:47 24.9 °C 17.4 °C 1016.9 hPa WNW 3.2 km/h 4.8 km/h 63% 0.0 mm 666 W/m2
10:52 25.2 °C 17.4 °C 1016.9 hPa SSE 1.4 km/h 11.3 km/h 62% 0.0 mm 297 W/m2
10:57 25.1 °C 17.6 °C 1016.9 hPa Calm   3.2 km/h 63% 0.0 mm 204 W/m2
11:02 24.9 °C 17.4 °C 1016.9 hPa East 3.2 km/h 12.9 km/h 63% 0.0 mm 165 W/m2
11:07 24.7 °C 17.7 °C 1016.6 hPa SW 1.4 km/h 6.4 km/h 65% 0.0 mm 158 W/m2
11:12 24.6 °C 17.3 °C 1016.6 hPa SE 3.2 km/h 12.9 km/h 64% 0.0 mm 197 W/m2
11:17 24.4 °C 17.6 °C 1016.9 hPa ENE 1.4 km/h 4.8 km/h 66% 0.0 mm 248 W/m2
11:22 24.5 °C 17.5 °C 1016.6 hPa SW 1.4 km/h 6.4 km/h 65% 0.0 mm 443 W/m2
11:27 24.7 °C 17.7 °C 1016.6 hPa Calm   3.2 km/h 65% 0.0 mm 548 W/m2
11:32 24.8 °C 17.5 °C 1016.3 hPa ENE 3.2 km/h 3.2 km/h 64% 0.0 mm 185 W/m2
11:37 24.7 °C 17.4 °C 1016.3 hPa ENE 3.2 km/h 3.2 km/h 64% 0.0 mm 120 W/m2
11:42 24.5 °C 17.2 °C 1015.6 hPa ESE 1.4 km/h 1.6 km/h 64% 0.0 mm 132 W/m2
11:47 24.5 °C 18.2 °C 1015.2 hPa SE 1.4 km/h 1.6 km/h 68% 0.0 mm 232 W/m2
11:52 24.8 °C 18.3 °C 1015.6 hPa West 3.2 km/h 4.8 km/h 67% 0.0 mm 863 W/m2
11:57 25.2 °C 17.9 °C 1015.2 hPa NNE 1.4 km/h 4.8 km/h 64% 0.0 mm 911 W/m2
12:02 25.7 °C 18.1 °C 1015.6 hPa WSW 1.4 km/h 4.8 km/h 63% 0.0 mm 969 W/m2
12:07 25.8 °C 18.2 °C 1015.6 hPa WNW 4.7 km/h 4.8 km/h 63% 0.0 mm 886 W/m2
12:12 26.1 °C 18.2 °C 1015.6 hPa NNW 1.4 km/h 4.8 km/h 62% 0.0 mm 715 W/m2
12:17 26.4 °C 18 °C 1015.6 hPa East 4.7 km/h 6.4 km/h 60% 0.0 mm 722 W/m2
12:22 26.6 °C 18.5 °C 1015.2 hPa East 1.4 km/h 4.8 km/h 61% 0.0 mm 779 W/m2
12:27 26.8 °C 18.1 °C 1015.2 hPa ENE 4.7 km/h 8 km/h 59% 0.0 mm 768 W/m2
12:32 26.9 °C 17.9 °C 1015.2 hPa North 1.4 km/h 6.4 km/h 58% 0.0 mm 721 W/m2
12:37 27.2 °C 17.9 °C 1015.2 hPa ESE 4.7 km/h 11.3 km/h 57% 0.0 mm 807 W/m2
12:43 27.2 °C 17.9 °C 1015.2 hPa Calm   6.4 km/h 57% 0.0 mm 751 W/m2
12:48 27.3 °C 18 °C 1015.2 hPa Calm   11.3 km/h 57% 0.0 mm 837 W/m2
12:53 27.4 °C 17.8 °C 1015.2 hPa Calm   3.2 km/h 56% 0.0 mm 763 W/m2
12:58 27.6 °C 18 °C 1014.9 hPa West 4.7 km/h 9.7 km/h 56% 0.0 mm 519 W/m2
13:03 27.6 °C 18 °C 1014.9 hPa NE 4.7 km/h 6.4 km/h 56% 0.0 mm 422 W/m2
13:08 27.7 °C 17.8 °C 1014.6 hPa NNE 1.4 km/h 8 km/h 55% 0.0 mm 506 W/m2
13:13 27.7 °C 18.1 °C 1014.6 hPa NE 1.4 km/h 8 km/h 56% 0.0 mm 555 W/m2
13:18 27.9 °C 18 °C 1014.6 hPa Calm   3.2 km/h 55% 0.0 mm 529 W/m2
13:23 27.9 °C 18.3 °C 1015.2 hPa ESE 1.4 km/h 9.7 km/h 56% 0.0 mm 199 W/m2
13:28 27.8 °C 18.2 °C 1015.2 hPa West 4.7 km/h 4.8 km/h 56% 0.0 mm 504 W/m2
13:33 27.7 °C 18.1 °C 1015.6 hPa West 6.4 km/h 9.7 km/h 56% 0.0 mm 462 W/m2
13:38 27.5 °C 17.7 °C 1015.6 hPa WSW 3.2 km/h 6.4 km/h 55% 0.0 mm 183 W/m2
13:43 27.3 °C 18 °C 1016.3 hPa WSW 6.4 km/h 12.9 km/h 57% 0.0 mm 70 W/m2
13:48 26.9 °C 18.2 °C 1016.6 hPa WSW 6.4 km/h 12.9 km/h 59% 0.0 mm 32 W/m2
13:53 26.2 °C 19.6 °C 1015.6 hPa SE 4.7 km/h 6.4 km/h 67% 0.5 mm 26 W/m2
13:58 25.1 °C 19 °C 1013.2 hPa SSE 3.2 km/h 6.4 km/h 69% 0.5 mm 65 W/m2
14:03 24.3 °C 19.8 °C 1013.2 hPa SW 4.7 km/h 4.8 km/h 76% 0.5 mm 155 W/m2
14:08 23.5 °C 20 °C 1013.9 hPa WSW 3.2 km/h 3.2 km/h 81% 0.5 mm 141 W/m2
14:13 23 °C 20.1 °C 1014.2 hPa Calm   1.6 km/h 84% 0.5 mm 127 W/m2
14:18 22.8 °C 20 °C 1013.9 hPa West 3.2 km/h 3.2 km/h 84% 0.5 mm 83 W/m2
14:23 22.8 °C 19.4 °C 1013.9 hPa NNE 1.4 km/h 8 km/h 81% 0.8 mm 60 W/m2
14:28 22.9 °C 19.5 °C 1013.9 hPa East 4.7 km/h 4.8 km/h 81% 0.8 mm 33 W/m2
14:33 22.4 °C 19 °C 1013.5 hPa WSW 4.7 km/h 8 km/h 81% 1.5 mm 40 W/m2
14:38 22 °C 18.8 °C 1013.5 hPa WNW 4.7 km/h 8 km/h 82% 1.5 mm 54 W/m2
14:43 21.7 °C 18.9 °C 1014.2 hPa SSW 1.4 km/h 12.9 km/h 84% 1.5 mm 79 W/m2
14:48 21.4 °C 19 °C 1014.6 hPa WSW 1.4 km/h 6.4 km/h 86% 1.5 mm 151 W/m2
14:53 21.4 °C 19.1 °C 1014.2 hPa NNE 1.4 km/h 12.9 km/h 87% 1.3 mm 204 W/m2
14:58 21.5 °C 19.2 °C 1014.2 hPa WSW 1.4 km/h 6.4 km/h 87% 1.0 mm 223 W/m2
15:03 21.7 °C 19.6 °C 1013.9 hPa West 3.2 km/h 4.8 km/h 88% 1.0 mm 378 W/m2
15:08 22 °C 19.5 °C 1013.9 hPa West 3.2 km/h 6.4 km/h 86% 1.0 mm 336 W/m2
15:13 22.6 °C 19.9 °C 1013.9 hPa Calm   4.8 km/h 85% 1.0 mm 789 W/m2
15:18 23.2 °C 20.2 °C 1013.5 hPa West 1.4 km/h 3.2 km/h 83% 1.0 mm 680 W/m2
15:23 23.6 °C 21.1 °C 1013.5 hPa Calm     86% 0.8 mm 919 W/m2
15:28 24 °C 20.7 °C 1013.5 hPa NNW 3.2 km/h 4.8 km/h 82% 0.8 mm 759 W/m2
15:33 24.3 °C 20.2 °C 1013.5 hPa NW 3.2 km/h 4.8 km/h 78% 0.0 mm 381 W/m2
15:38 24.7 °C 20.8 °C 1013.5 hPa Calm   1.6 km/h 79% 0.0 mm 796 W/m2
15:43 25.1 °C 20.6 °C 1013.2 hPa East 6.4 km/h 6.4 km/h 76% 0.0 mm 775 W/m2
15:48 25.3 °C 20.8 °C 1012.9 hPa ESE 6.4 km/h 9.7 km/h 76% 0.0 mm 758 W/m2
15:53 25.4 °C 20.2 °C 1012.9 hPa ESE 11.1 km/h 11.3 km/h 73% 0.0 mm 733 W/m2
15:58 25.5 °C 20.1 °C 1013.2 hPa NE 3.2 km/h 6.4 km/h 72% 0.0 mm 710 W/m2
16:03 25.7 °C 20.5 °C 1013.2 hPa Calm   4.8 km/h 73% 0.0 mm 721 W/m2
16:08 26.1 °C 20.4 °C 1012.9 hPa Calm   6.4 km/h 71% 0.0 mm 717 W/m2
16:13 26.4 °C 20.3 °C 1012.9 hPa NE 3.2 km/h 12.9 km/h 69% 0.0 mm 691 W/m2
16:18 26.4 °C 20.5 °C 1012.9 hPa East 3.2 km/h 9.7 km/h 70% 0.0 mm 712 W/m2
16:23 26.6 °C 20 °C 1013.2 hPa ESE 3.2 km/h 4.8 km/h 67% 0.0 mm 689 W/m2
16:28 26.7 °C 19.6 °C 1013.2 hPa West 3.2 km/h 9.7 km/h 65% 0.0 mm 656 W/m2
16:33 26.8 °C 19.4 °C 1013.2 hPa Calm   4.8 km/h 64% 0.0 mm 673 W/m2
16:38 26.9 °C 19 °C 1013.2 hPa West 3.2 km/h 3.2 km/h 62% 0.0 mm 668 W/m2
16:43 26.9 °C 18.5 °C 1013.2 hPa West 4.7 km/h 9.7 km/h 60% 0.0 mm 657 W/m2
16:48 26.9 °C 18.2 °C 1012.9 hPa NW 4.7 km/h 8 km/h 59% 0.0 mm 613 W/m2
16:53 26.9 °C 18.2 °C 1012.9 hPa NW 4.7 km/h 8 km/h 59% 0.0 mm 642 W/m2
16:58 27.2 °C 18.8 °C 1012.9 hPa East 1.4 km/h 6.4 km/h 60% 0.0 mm 631 W/m2
17:03 27.1 °C 17.8 °C 1012.9 hPa NNW 1.4 km/h 17.7 km/h 57% 0.0 mm 613 W/m2
17:08 27.1 °C 18.7 °C 1012.9 hPa NNW 6.4 km/h 16.1 km/h 60% 0.0 mm 606 W/m2
17:13 27.3 °C 18.3 °C 1012.9 hPa NNE 3.2 km/h 6.4 km/h 58% 0.0 mm 482 W/m2
17:18 27.2 °C 17.9 °C 1012.9 hPa West 11.1 km/h 16.1 km/h 57% 0.0 mm 482 W/m2
17:23 26.9 °C 17.9 °C 1012.9 hPa NNE 6.4 km/h 6.4 km/h 58% 0.0 mm 162 W/m2
17:28 26.6 °C 17.4 °C 1012.5 hPa SSW 7.9 km/h 17.7 km/h 57% 0.0 mm 186 W/m2
17:33 26.5 °C 17.6 °C 1012.9 hPa ENE 7.9 km/h 12.9 km/h 58% 0.0 mm 171 W/m2
17:38 26.4 °C 17.5 °C 1012.5 hPa NW 6.4 km/h 17.7 km/h 58% 0.0 mm 83 W/m2
17:43 26.3 °C 17.4 °C 1012.5 hPa SW 1.4 km/h 6.4 km/h 58% 0.0 mm 105 W/m2
17:48 26.2 °C 17.3 °C 1012.9 hPa West 4.7 km/h 17.7 km/h 58% 0.0 mm 97 W/m2
17:58 25.9 °C 17.3 °C 1013.5 hPa NW 3.2 km/h 11.3 km/h 59% 0.0 mm 32 W/m2
18:03 25.8 °C 17.4 °C 1013.2 hPa ENE 3.2 km/h 6.4 km/h 60% 0.0 mm 19 W/m2
18:08 25.7 °C 17.4 °C 1013.2 hPa WNW 4.7 km/h 12.9 km/h 60% 0.0 mm 7 W/m2
18:13 25.3 °C 18.5 °C 1013.5 hPa WSW 7.9 km/h 17.7 km/h 66% 0.8 mm 0 W/m2
18:18 23.7 °C 18.8 °C 1014.6 hPa WNW 22.7 km/h 29 km/h 74% 2.5 mm 5 W/m2
18:23 22 °C 18.2 °C 1014.6 hPa West 9.7 km/h 17.7 km/h 79% 3.6 mm 16 W/m2
18:28 20.7 °C 17.9 °C 1014.6 hPa West 9.7 km/h 24.1 km/h 84% 3.8 mm 40 W/m2
18:33 19.8 °C 17.2 °C 1014.2 hPa WSW 4.7 km/h 20.9 km/h 85% 3.8 mm 47 W/m2
18:38 19.3 °C 16.9 °C 1014.6 hPa WSW 14.3 km/h 19.3 km/h 86% 3.8 mm 165 W/m2
18:43 19.2 °C 17.2 °C 1014.6 hPa West 11.1 km/h 17.7 km/h 88% 3.8 mm 213 W/m2
18:48 19.1 °C 17.1 °C 1014.6 hPa West 13 km/h 20.9 km/h 88% 3.8 mm 185 W/m2
18:53 19.2 °C 17.3 °C 1014.6 hPa NNW 7.9 km/h 19.3 km/h 89% 3.8 mm 146 W/m2
18:58 19.2 °C 17.2 °C 1014.9 hPa West 3.2 km/h 17.7 km/h 88% 3.8 mm 204 W/m2
19:03 19.4 °C 17.4 °C 1014.9 hPa West 16.3 km/h 19.3 km/h 88% 3.8 mm 142 W/m2
19:08 19.4 °C 17.4 °C 1014.9 hPa SW 13 km/h 19.3 km/h 88% 3.8 mm 109 W/m2
19:13 19.5 °C 17.5 °C 1015.2 hPa WNW 11.1 km/h 16.1 km/h 88% 2.8 mm 72 W/m2
19:18 19.5 °C 17.5 °C 1015.2 hPa West 13 km/h 16.1 km/h 88% 1.3 mm 65 W/m2
19:23 19.6 °C 17.6 °C 1015.2 hPa West 13 km/h 16.1 km/h 88% 0.2 mm 130 W/m2
19:28 19.8 °C 17.8 °C 1015.2 hPa NW 9.7 km/h 20.9 km/h 88% 0.0 mm 69 W/m2
19:33 19.9 °C 17.7 °C 1015.2 hPa West 9.7 km/h 19.3 km/h 87% 0.0 mm 51 W/m2
19:38 19.9 °C 17.3 °C 1015.6 hPa West 17.7 km/h 20.9 km/h 85% 0.0 mm 74 W/m2
19:43 19.9 °C 17.1 °C 1015.6 hPa West 13 km/h 25.7 km/h 84% 0.0 mm 83 W/m2
19:48 20 °C 17 °C 1015.6 hPa WNW 6.4 km/h 19.3 km/h 83% 0.0 mm 77 W/m2
19:53 19.9 °C 16.7 °C 1015.9 hPa WNW 11.1 km/h 25.7 km/h 82% 0.0 mm 67 W/m2
19:58 19.8 °C 16.8 °C 1015.9 hPa WNW 11.1 km/h 16.1 km/h 83% 0.0 mm 53 W/m2
20:03 19.7 °C 16.7 °C 1016.3 hPa West 6.4 km/h 16.1 km/h 83% 0.0 mm 46 W/m2
20:08 19.4 °C 16.6 °C 1016.3 hPa WNW 11.1 km/h 14.5 km/h 84% 0.0 mm 46 W/m2
20:13 19.4 °C 16.6 °C 1016.3 hPa West 3.2 km/h 17.7 km/h 84% 0.0 mm 37 W/m2
20:18 19.3 °C 16.5 °C 1016.3 hPa WSW 6.4 km/h 20.9 km/h 84% 0.0 mm 39 W/m2
20:23 19.2 °C 16.2 °C 1016.3 hPa WNW 14.3 km/h 20.9 km/h 83% 0.0 mm 35 W/m2
20:28 19.2 °C 15.9 °C 1016.6 hPa West 4.7 km/h 17.7 km/h 81% 0.0 mm 32 W/m2
20:33 19.1 °C 15.8 °C 1016.6 hPa West 4.7 km/h 20.9 km/h 81% 0.0 mm 21 W/m2
20:38 18.9 °C 15.8 °C 1016.6 hPa WSW 13 km/h 17.7 km/h 82% 0.0 mm 21 W/m2
20:43 18.8 °C 15.7 °C 1016.9 hPa WSW 11.1 km/h 16.1 km/h 82% 0.0 mm 19 W/m2
20:48 18.7 °C 15.6 °C 1016.9 hPa WSW 11.1 km/h 17.7 km/h 82% 0.0 mm 16 W/m2
20:53 18.5 °C 15.4 °C 1017.3 hPa West 11.1 km/h 19.3 km/h 82% 0.0 mm 14 W/m2
20:58 18.4 °C 15.1 °C 1017.3 hPa West 9.7 km/h 16.1 km/h 81% 0.0 mm 16 W/m2
21:03 18.4 °C 15.1 °C 1017.3 hPa West 9.7 km/h 17.7 km/h 81% 0.0 mm 14 W/m2
21:08 18.3 °C 15 °C 1017.6 hPa WSW 6.4 km/h 11.3 km/h 81% 0.0 mm 11 W/m2
21:13 18.2 °C 15.1 °C 1017.6 hPa WNW 4.7 km/h 12.9 km/h 82% 0.0 mm 7 W/m2
21:18 18 °C 15.1 °C 1018.0 hPa West 4.7 km/h 11.3 km/h 83% 0.0 mm 5 W/m2
21:23 17.8 °C 14.9 °C 1018.0 hPa SW 4.7 km/h 16.1 km/h 83% 0.0 mm 0 W/m2
21:28 17.8 °C 14.7 °C 1018.0 hPa West 9.7 km/h 16.1 km/h 82% 0.0 mm 0 W/m2
21:33 17.7 °C 14.4 °C 1018.0 hPa WNW 13 km/h 19.3 km/h 81% 0.0 mm 0 W/m2
21:38 17.4 °C 13.7 °C 1018.3 hPa WNW 25.9 km/h 25.7 km/h 79% 0.0 mm 0 W/m2
21:43 17.3 °C 13.4 °C 1018.3 hPa WNW 16.3 km/h 22.5 km/h 78% 0.0 mm 0 W/m2
21:48 17.1 °C 13.2 °C 1018.3 hPa NW 9.7 km/h 22.5 km/h 78% 0.0 mm 0 W/m2
21:53 16.8 °C 12.9 °C 1018.3 hPa WNW 16.3 km/h 19.3 km/h 78% 0.0 mm 0 W/m2
21:58 16.6 °C 12.7 °C 1018.3 hPa West 11.1 km/h 17.7 km/h 78% 0.0 mm 0 W/m2
22:03 16.5 °C 12.8 °C 1018.6 hPa West 11.1 km/h 12.9 km/h 79% 0.0 mm 0 W/m2
22:08 16.3 °C 12.8 °C 1018.6 hPa WSW 9.7 km/h 14.5 km/h 80% 0.0 mm 0 W/m2
22:13 16.2 °C 12.7 °C 1019.0 hPa SW 14.3 km/h 14.5 km/h 80% 0.0 mm 0 W/m2
22:18 16 °C 12.7 °C 1019.0 hPa WSW 14.3 km/h 17.7 km/h 81% 0.0 mm 0 W/m2
22:23 15.8 °C 12.5 °C 1019.0 hPa WNW 11.1 km/h 16.1 km/h 81% 0.0 mm 0 W/m2
22:29 15.7 °C 12.4 °C 1019.0 hPa WNW 13 km/h 16.1 km/h 81% 0.0 mm 0 W/m2
22:34 15.6 °C 12.4 °C 1019.3 hPa NNW 14.3 km/h 19.3 km/h 81% 0.0 mm 0 W/m2
22:39 15.5 °C 12.3 °C 1019.3 hPa WSW 11.1 km/h 14.5 km/h 81% 0.0 mm 0 W/m2
22:44 15.4 °C 12.3 °C 1019.3 hPa West 11.1 km/h 16.1 km/h 82% 0.0 mm 0 W/m2
22:49 15.2 °C 12.1 °C 1019.6 hPa West 9.7 km/h 19.3 km/h 82% 0.0 mm 0 W/m2
22:54 15.2 °C 12.1 °C 1019.6 hPa NW 14.3 km/h 16.1 km/h 82% 0.0 mm 0 W/m2
22:59 15.2 °C 12.1 °C 1019.6 hPa NW 13 km/h 14.5 km/h 82% 0.0 mm 0 W/m2
23:04 15.1 °C 12.2 °C 1019.6 hPa West 6.4 km/h 16.1 km/h 83% 0.0 mm 0 W/m2
23:09 14.9 °C 12 °C 1020.0 hPa West 9.7 km/h 16.1 km/h 83% 0.0 mm 0 W/m2
23:14 14.8 °C 11.9 °C 1020.0 hPa WSW 7.9 km/h 14.5 km/h 83% 0.0 mm 0 W/m2
23:19 14.7 °C 12 °C 1020.0 hPa WNW 6.4 km/h 11.3 km/h 84% 0.0 mm 0 W/m2
23:24 14.6 °C 11.9 °C 1020.3 hPa NW 13 km/h 14.5 km/h 84% 0.0 mm 0 W/m2
23:29 14.5 °C 11.8 °C 1020.3 hPa WSW 6.4 km/h 16.1 km/h 84% 0.0 mm 0 W/m2
23:34 14.4 °C 11.7 °C 1020.7 hPa NW 6.4 km/h 12.9 km/h 84% 0.0 mm 0 W/m2
23:39 14.4 °C 11.7 °C 1020.7 hPa SW 7.9 km/h 16.1 km/h 84% 0.0 mm 0 W/m2
23:44 14.3 °C 11.6 °C 1020.7 hPa SW 4.7 km/h 14.5 km/h 84% 0.0 mm 0 W/m2
23:49 14.2 °C 11.5 °C 1020.7 hPa West 4.7 km/h 9.7 km/h 84% 0.0 mm 0 W/m2
23:54 14 °C 11.5 °C 1020.7 hPa West 3.2 km/h 14.5 km/h 85% 0.0 mm 0 W/m2
23:59 13.8 °C 11.3 °C 1021.0 hPa West 4.7 km/h 11.3 km/h 85% 0.0 mm 0 W/m2
Juneau County Weather
Compliments of Weather Underground - 4 mb